4WI4 weather

Turner Airport
Tomahawk, Wisconsin, United States

Public forecast

Using degrees Fahrenheit for public forecast. Weather courtesy of forecast.io.

Closest aviation weather report (METAR) to Turner Airport

Closest report is Tomahawk Regional Airport, 6.8 nm (12.5 km) SSW. Retrieved 2020/02/26 18:35 UTC (11 minutes ago):

KTKV 261835Z AUTO 36006KT 7SM OVC034 M05/M12 A3014 RMK AO2 T10511118 PWINO

Closest aviation forecast (TAF) to Turner Airport

Closest forecast is Rhinelander Oneida County Airport, 12.3 nm (22.7 km) ENE. Retrieved 2020/02/26 18:42 UTC (4 minutes ago):

TAF KRHI 261740Z 2618/2718 36008KT P6SM -SHSN BKN020 FM262000 35009KT P6SM -SHSN BKN022 FM262100 34006KT P6SM -SHSN SCT024 BKN045 FM270800 32005KT P6SM BKN035 FM271600 32008G15KT P6SM BKN060